sensor_id;sensor_type;location;lat;lon;timestamp;temperature;humidity
18839;DHT22;9548;56.920;14.804;2022-12-20T00:01:43;1.80;99.90
18839;DHT22;9548;56.920;14.804;2022-12-20T00:04:10;1.80;99.90
18839;DHT22;9548;56.920;14.804;2022-12-20T00:06:38;1.90;99.90
18839;DHT22;9548;56.920;14.804;2022-12-20T00:09:08;1.90;99.90
18839;DHT22;9548;56.920;14.804;2022-12-20T00:11:37;1.80;99.90
18839;DHT22;9548;56.920;14.804;2022-12-20T00:14:05;1.90;99.90
18839;DHT22;9548;56.920;14.804;2022-12-20T00:16:32;1.90;99.90
18839;DHT22;9548;56.920;14.804;2022-12-20T00:19:01;1.90;99.90
18839;DHT22;9548;56.920;14.804;2022-12-20T00:21:30;2.00;99.90
18839;DHT22;9548;56.920;14.804;2022-12-20T00:23:58;1.90;99.90
18839;DHT22;9548;56.920;14.804;2022-12-20T00:26:28;2.00;99.90
18839;DHT22;9548;56.920;14.804;2022-12-20T00:28:56;2.00;99.90
18839;DHT22;9548;56.920;14.804;2022-12-20T00:31:24;2.00;99.90
18839;DHT22;9548;56.920;14.804;2022-12-20T00:33:52;2.00;99.90
18839;DHT22;9548;56.920;14.804;2022-12-20T00:36:21;2.10;99.90
18839;DHT22;9548;56.920;14.804;2022-12-20T00:38:49;2.10;99.90
18839;DHT22;9548;56.920;14.804;2022-12-20T00:41:19;2.10;99.90
18839;DHT22;9548;56.920;14.804;2022-12-20T00:43:50;2.10;99.90
18839;DHT22;9548;56.920;14.804;2022-12-20T00:46:19;2.00;99.90
18839;DHT22;9548;56.920;14.804;2022-12-20T00:48:47;2.10;99.90
18839;DHT22;9548;56.920;14.804;2022-12-20T00:51:16;2.00;99.90
18839;DHT22;9548;56.920;14.804;2022-12-20T00:53:44;2.10;99.90
18839;DHT22;9548;56.920;14.804;2022-12-20T00:56:11;2.10;99.90
18839;DHT22;9548;56.920;14.804;2022-12-20T00:58:40;2.10;99.90
18839;DHT22;9548;56.920;14.804;2022-12-20T01:01:15;2.10;99.90
18839;DHT22;9548;56.920;14.804;2022-12-20T01:03:43;2.20;99.90
18839;DHT22;9548;56.920;14.804;2022-12-20T01:06:10;2.20;99.90
18839;DHT22;9548;56.920;14.804;2022-12-20T01:08:37;2.20;99.90
18839;DHT22;9548;56.920;14.804;2022-12-20T01:11:06;2.30;99.90
18839;DHT22;9548;56.920;14.804;2022-12-20T01:13:35;2.30;99.90
18839;DHT22;9548;56.920;14.804;2022-12-20T01:16:09;2.30;99.90
18839;DHT22;9548;56.920;14.804;2022-12-20T01:18:37;2.30;99.90
18839;DHT22;9548;56.920;14.804;2022-12-20T01:21:05;2.30;99.90
18839;DHT22;9548;56.920;14.804;2022-12-20T01:23:32;2.30;99.90
18839;DHT22;9548;56.920;14.804;2022-12-20T01:26:01;2.30;99.90
18839;DHT22;9548;56.920;14.804;2022-12-20T01:28:30;2.40;99.90
18839;DHT22;9548;56.920;14.804;2022-12-20T01:30:57;2.30;99.90
18839;DHT22;9548;56.920;14.804;2022-12-20T01:33:26;2.30;99.90
18839;DHT22;9548;56.920;14.804;2022-12-20T01:35:58;2.30;99.90
18839;DHT22;9548;56.920;14.804;2022-12-20T01:38:25;2.40;99.90
18839;DHT22;9548;56.920;14.804;2022-12-20T01:40:52;2.40;99.90
18839;DHT22;9548;56.920;14.804;2022-12-20T01:43:21;2.40;99.90
18839;DHT22;9548;56.920;14.804;2022-12-20T01:45:48;2.40;99.90
18839;DHT22;9548;56.920;14.804;2022-12-20T01:48:19;2.40;99.90
18839;DHT22;9548;56.920;14.804;2022-12-20T01:50:49;2.40;99.90
18839;DHT22;9548;56.920;14.804;2022-12-20T01:53:18;2.40;99.90
18839;DHT22;9548;56.920;14.804;2022-12-20T01:55:47;2.40;99.90
18839;DHT22;9548;56.920;14.804;2022-12-20T01:58:15;2.40;99.90
18839;DHT22;9548;56.920;14.804;2022-12-20T02:00:43;2.40;99.90
18839;DHT22;9548;56.920;14.804;2022-12-20T02:03:12;2.40;99.90
18839;DHT22;9548;56.920;14.804;2022-12-20T02:05:41;2.50;99.90
18839;DHT22;9548;56.920;14.804;2022-12-20T02:08:10;2.50;99.90
18839;DHT22;9548;56.920;14.804;2022-12-20T02:10:50;2.50;99.90
18839;DHT22;9548;56.920;14.804;2022-12-20T02:13:31;2.50;99.90
18839;DHT22;9548;56.920;14.804;2022-12-20T02:16:03;2.50;99.90
18839;DHT22;9548;56.920;14.804;2022-12-20T02:18:35;2.50;99.90
18839;DHT22;9548;56.920;14.804;2022-12-20T02:21:27;2.50;99.90
18839;DHT22;9548;56.920;14.804;2022-12-20T02:24:32;2.50;99.90
18839;DHT22;9548;56.920;14.804;2022-12-20T02:27:33;2.50;99.90
18839;DHT22;9548;56.920;14.804;2022-12-20T02:30:08;2.60;99.90
18839;DHT22;9548;56.920;14.804;2022-12-20T02:32:39;2.60;99.90
18839;DHT22;9548;56.920;14.804;2022-12-20T02:35:09;2.60;99.90
18839;DHT22;9548;56.920;14.804;2022-12-20T02:37:47;2.70;99.90
18839;DHT22;9548;56.920;14.804;2022-12-20T02:40:16;2.70;99.90
18839;DHT22;9548;56.920;14.804;2022-12-20T02:42:44;2.60;99.90
18839;DHT22;9548;56.920;14.804;2022-12-20T02:45:14;2.70;99.90
18839;DHT22;9548;56.920;14.804;2022-12-20T02:47:45;2.70;99.90
18839;DHT22;9548;56.920;14.804;2022-12-20T02:50:17;2.70;99.90
18839;DHT22;9548;56.920;14.804;2022-12-20T02:52:45;2.70;99.90
18839;DHT22;9548;56.920;14.804;2022-12-20T02:55:12;2.80;99.90
18839;DHT22;9548;56.920;14.804;2022-12-20T02:57:44;2.80;99.90
18839;DHT22;9548;56.920;14.804;2022-12-20T03:00:16;2.80;99.90
18839;DHT22;9548;56.920;14.804;2022-12-20T03:02:44;2.80;99.90
18839;DHT22;9548;56.920;14.804;2022-12-20T03:05:44;2.90;99.90
18839;DHT22;9548;56.920;14.804;2022-12-20T03:08:12;2.90;99.90
18839;DHT22;9548;56.920;14.804;2022-12-20T03:10:39;2.90;99.90
18839;DHT22;9548;56.920;14.804;2022-12-20T03:13:06;2.90;99.90
18839;DHT22;9548;56.920;14.804;2022-12-20T03:15:34;2.90;99.90
18839;DHT22;9548;56.920;14.804;2022-12-20T03:18:02;3.00;99.90
18839;DHT22;9548;56.920;14.804;2022-12-20T03:20:29;3.00;99.90
18839;DHT22;9548;56.920;14.804;2022-12-20T03:22:56;3.00;99.90
18839;DHT22;9548;56.920;14.804;2022-12-20T03:25:23;3.00;99.90
18839;DHT22;9548;56.920;14.804;2022-12-20T03:27:50;3.00;99.90
18839;DHT22;9548;56.920;14.804;2022-12-20T03:30:17;3.00;99.90
18839;DHT22;9548;56.920;14.804;2022-12-20T03:32:46;3.00;99.90
18839;DHT22;9548;56.920;14.804;2022-12-20T03:35:13;3.00;99.90
18839;DHT22;9548;56.920;14.804;2022-12-20T03:37:40;3.00;99.90
18839;DHT22;9548;56.920;14.804;2022-12-20T03:40:08;3.00;99.90
18839;DHT22;9548;56.920;14.804;2022-12-20T03:42:35;3.10;99.90
18839;DHT22;9548;56.920;14.804;2022-12-20T03:45:03;3.10;99.90
18839;DHT22;9548;56.920;14.804;2022-12-20T03:47:30;3.10;99.90
18839;DHT22;9548;56.920;14.804;2022-12-20T03:49:59;3.10;99.90
18839;DHT22;9548;56.920;14.804;2022-12-20T03:52:26;3.10;99.90
18839;DHT22;9548;56.920;14.804;2022-12-20T03:54:52;3.10;99.90
18839;DHT22;9548;56.920;14.804;2022-12-20T03:57:19;3.20;99.90
18839;DHT22;9548;56.920;14.804;2022-12-20T03:59:46;3.10;99.90
18839;DHT22;9548;56.920;14.804;2022-12-20T04:02:13;3.20;99.90
18839;DHT22;9548;56.920;14.804;2022-12-20T04:04:40;3.10;99.90
18839;DHT22;9548;56.920;14.804;2022-12-20T04:07:09;3.20;99.90
18839;DHT22;9548;56.920;14.804;2022-12-20T04:09:36;3.20;99.90
18839;DHT22;9548;56.920;14.804;2022-12-20T04:12:03;3.20;99.90
18839;DHT22;9548;56.920;14.804;2022-12-20T04:14:30;3.20;99.90
18839;DHT22;9548;56.920;14.804;2022-12-20T04:16:57;3.30;99.90
18839;DHT22;9548;56.920;14.804;2022-12-20T04:19:24;3.30;99.90
18839;DHT22;9548;56.920;14.804;2022-12-20T04:21:51;3.30;99.90
18839;DHT22;9548;56.920;14.804;2022-12-20T04:24:21;3.30;99.90
18839;DHT22;9548;56.920;14.804;2022-12-20T04:26:48;3.30;99.90
18839;DHT22;9548;56.920;14.804;2022-12-20T04:29:15;3.30;99.90
18839;DHT22;9548;56.920;14.804;2022-12-20T04:31:42;3.30;99.90
18839;DHT22;9548;56.920;14.804;2022-12-20T04:34:09;3.40;99.90
18839;DHT22;9548;56.920;14.804;2022-12-20T04:36:36;3.40;99.90
18839;DHT22;9548;56.920;14.804;2022-12-20T04:39:03;3.40;99.90
18839;DHT22;9548;56.920;14.804;2022-12-20T04:41:31;3.40;99.90
18839;DHT22;9548;56.920;14.804;2022-12-20T04:43:58;3.50;99.90
18839;DHT22;9548;56.920;14.804;2022-12-20T04:46:26;3.50;99.90
18839;DHT22;9548;56.920;14.804;2022-12-20T04:48:53;3.50;99.90
18839;DHT22;9548;56.920;14.804;2022-12-20T04:51:20;3.50;99.90
18839;DHT22;9548;56.920;14.804;2022-12-20T04:53:47;3.50;99.90
18839;DHT22;9548;56.920;14.804;2022-12-20T04:56:15;3.50;99.90
18839;DHT22;9548;56.920;14.804;2022-12-20T04:58:44;3.50;99.90
18839;DHT22;9548;56.920;14.804;2022-12-20T05:01:11;3.50;99.90
18839;DHT22;9548;56.920;14.804;2022-12-20T05:03:38;3.50;99.90
18839;DHT22;9548;56.920;14.804;2022-12-20T05:06:06;3.50;99.90
18839;DHT22;9548;56.920;14.804;2022-12-20T05:08:35;3.50;99.90
18839;DHT22;9548;56.920;14.804;2022-12-20T05:11:02;3.50;99.90
18839;DHT22;9548;56.920;14.804;2022-12-20T05:13:29;3.60;99.90
18839;DHT22;9548;56.920;14.804;2022-12-20T05:15:58;3.60;99.90
18839;DHT22;9548;56.920;14.804;2022-12-20T05:18:26;3.60;99.90
18839;DHT22;9548;56.920;14.804;2022-12-20T05:20:54;3.60;99.90
18839;DHT22;9548;56.920;14.804;2022-12-20T05:23:36;3.60;99.90
18839;DHT22;9548;56.920;14.804;2022-12-20T05:26:21;3.60;99.90
18839;DHT22;9548;56.920;14.804;2022-12-20T05:28:49;3.60;99.90
18839;DHT22;9548;56.920;14.804;2022-12-20T05:31:18;3.70;99.90
18839;DHT22;9548;56.920;14.804;2022-12-20T05:33:45;3.70;99.90
18839;DHT22;9548;56.920;14.804;2022-12-20T05:36:12;3.70;99.90
18839;DHT22;9548;56.920;14.804;2022-12-20T05:38:39;3.70;99.90
18839;DHT22;9548;56.920;14.804;2022-12-20T05:41:06;3.70;99.90
18839;DHT22;9548;56.920;14.804;2022-12-20T05:43:33;3.70;99.90
18839;DHT22;9548;56.920;14.804;2022-12-20T05:46:00;3.80;99.90
18839;DHT22;9548;56.920;14.804;2022-12-20T05:48:28;3.80;99.90
18839;DHT22;9548;56.920;14.804;2022-12-20T05:50:55;3.70;99.90
18839;DHT22;9548;56.920;14.804;2022-12-20T05:53:22;3.80;99.90
18839;DHT22;9548;56.920;14.804;2022-12-20T05:55:51;3.80;99.90
18839;DHT22;9548;56.920;14.804;2022-12-20T05:58:18;3.80;99.90
18839;DHT22;9548;56.920;14.804;2022-12-20T06:00:46;3.80;99.90
18839;DHT22;9548;56.920;14.804;2022-12-20T06:03:13;3.80;99.90
18839;DHT22;9548;56.920;14.804;2022-12-20T06:05:43;3.80;99.90
18839;DHT22;9548;56.920;14.804;2022-12-20T06:08:11;3.80;99.90
18839;DHT22;9548;56.920;14.804;2022-12-20T06:10:38;3.90;99.90
18839;DHT22;9548;56.920;14.804;2022-12-20T06:13:06;3.90;99.90
18839;DHT22;9548;56.920;14.804;2022-12-20T06:15:33;3.90;99.90
18839;DHT22;9548;56.920;14.804;2022-12-20T06:18:00;3.90;99.90
18839;DHT22;9548;56.920;14.804;2022-12-20T06:20:27;4.00;99.90
18839;DHT22;9548;56.920;14.804;2022-12-20T06:22:55;4.00;99.90
18839;DHT22;9548;56.920;14.804;2022-12-20T06:25:22;4.00;99.90
18839;DHT22;9548;56.920;14.804;2022-12-20T06:27:50;4.00;99.90
18839;DHT22;9548;56.920;14.804;2022-12-20T06:30:17;4.10;99.90
18839;DHT22;9548;56.920;14.804;2022-12-20T06:32:44;4.10;99.90
18839;DHT22;9548;56.920;14.804;2022-12-20T06:35:11;4.00;99.90
18839;DHT22;9548;56.920;14.804;2022-12-20T06:37:39;4.00;99.90
18839;DHT22;9548;56.920;14.804;2022-12-20T06:40:09;4.00;99.90
18839;DHT22;9548;56.920;14.804;2022-12-20T06:42:36;4.00;99.90
18839;DHT22;9548;56.920;14.804;2022-12-20T06:45:04;4.00;99.90
18839;DHT22;9548;56.920;14.804;2022-12-20T06:47:31;4.00;99.90
18839;DHT22;9548;56.920;14.804;2022-12-20T06:49:58;4.00;99.90
18839;DHT22;9548;56.920;14.804;2022-12-20T06:52:25;4.00;99.90
18839;DHT22;9548;56.920;14.804;2022-12-20T06:54:52;4.00;99.90
18839;DHT22;9548;56.920;14.804;2022-12-20T06:57:21;4.00;99.90
18839;DHT22;9548;56.920;14.804;2022-12-20T06:59:47;4.00;99.90
18839;DHT22;9548;56.920;14.804;2022-12-20T07:02:16;4.00;99.90
18839;DHT22;9548;56.920;14.804;2022-12-20T07:04:43;4.00;99.90
18839;DHT22;9548;56.920;14.804;2022-12-20T07:07:11;4.00;99.90
18839;DHT22;9548;56.920;14.804;2022-12-20T07:09:38;4.00;99.90
18839;DHT22;9548;56.920;14.804;2022-12-20T07:12:06;4.00;99.90
18839;DHT22;9548;56.920;14.804;2022-12-20T07:14:34;4.00;99.90
18839;DHT22;9548;56.920;14.804;2022-12-20T07:17:01;4.10;99.90
18839;DHT22;9548;56.920;14.804;2022-12-20T07:19:29;4.10;99.90
18839;DHT22;9548;56.920;14.804;2022-12-20T07:21:55;4.10;99.90
18839;DHT22;9548;56.920;14.804;2022-12-20T07:24:22;4.10;99.90
18839;DHT22;9548;56.920;14.804;2022-12-20T07:26:49;4.10;99.90
18839;DHT22;9548;56.920;14.804;2022-12-20T07:29:17;4.10;99.90
18839;DHT22;9548;56.920;14.804;2022-12-20T07:31:45;4.10;99.90
18839;DHT22;9548;56.920;14.804;2022-12-20T07:34:12;4.10;99.90
18839;DHT22;9548;56.920;14.804;2022-12-20T07:36:39;4.20;99.90
18839;DHT22;9548;56.920;14.804;2022-12-20T07:39:07;4.20;99.90
18839;DHT22;9548;56.920;14.804;2022-12-20T07:41:34;4.20;99.90
18839;DHT22;9548;56.920;14.804;2022-12-20T07:44:01;4.20;99.90
18839;DHT22;9548;56.920;14.804;2022-12-20T07:46:28;4.20;99.90
18839;DHT22;9548;56.920;14.804;2022-12-20T07:48:56;4.20;99.90
18839;DHT22;9548;56.920;14.804;2022-12-20T07:51:25;4.20;99.90
18839;DHT22;9548;56.920;14.804;2022-12-20T07:53:56;4.20;99.90
18839;DHT22;9548;56.920;14.804;2022-12-20T07:56:25;4.20;99.90
18839;DHT22;9548;56.920;14.804;2022-12-20T07:58:54;4.20;99.90
18839;DHT22;9548;56.920;14.804;2022-12-20T08:01:24;4.20;99.90
18839;DHT22;9548;56.920;14.804;2022-12-20T08:03:59;4.30;99.90
18839;DHT22;9548;56.920;14.804;2022-12-20T08:06:28;4.30;99.90
18839;DHT22;9548;56.920;14.804;2022-12-20T08:08:57;4.30;99.90
18839;DHT22;9548;56.920;14.804;2022-12-20T08:11:26;4.30;99.90
18839;DHT22;9548;56.920;14.804;2022-12-20T08:13:55;4.30;99.90
18839;DHT22;9548;56.920;14.804;2022-12-20T08:16:22;4.30;99.90
18839;DHT22;9548;56.920;14.804;2022-12-20T08:18:49;4.30;99.90
18839;DHT22;9548;56.920;14.804;2022-12-20T08:21:18;4.30;99.90
18839;DHT22;9548;56.920;14.804;2022-12-20T08:23:45;4.40;99.90
18839;DHT22;9548;56.920;14.804;2022-12-20T08:26:13;4.50;99.90
18839;DHT22;9548;56.920;14.804;2022-12-20T08:28:41;4.40;99.90
18839;DHT22;9548;56.920;14.804;2022-12-20T08:31:08;4.40;99.90
18839;DHT22;9548;56.920;14.804;2022-12-20T08:33:37;4.40;99.90
18839;DHT22;9548;56.920;14.804;2022-12-20T08:36:06;4.40;99.90
18839;DHT22;9548;56.920;14.804;2022-12-20T08:38:35;4.40;99.90
18839;DHT22;9548;56.920;14.804;2022-12-20T08:41:03;4.50;99.90
18839;DHT22;9548;56.920;14.804;2022-12-20T08:43:31;4.40;99.90
18839;DHT22;9548;56.920;14.804;2022-12-20T08:45:57;4.40;99.90
18839;DHT22;9548;56.920;14.804;2022-12-20T08:48:26;4.40;99.90
18839;DHT22;9548;56.920;14.804;2022-12-20T08:50:54;4.50;99.90
18839;DHT22;9548;56.920;14.804;2022-12-20T08:53:21;4.50;99.90
18839;DHT22;9548;56.920;14.804;2022-12-20T08:55:50;4.50;99.90
18839;DHT22;9548;56.920;14.804;2022-12-20T08:58:17;4.50;99.90
18839;DHT22;9548;56.920;14.804;2022-12-20T09:00:44;4.50;99.90
18839;DHT22;9548;56.920;14.804;2022-12-20T09:03:12;4.50;99.90
18839;DHT22;9548;56.920;14.804;2022-12-20T09:05:44;4.50;99.90
18839;DHT22;9548;56.920;14.804;2022-12-20T09:08:12;4.50;99.90
18839;DHT22;9548;56.920;14.804;2022-12-20T09:10:42;4.50;99.90
18839;DHT22;9548;56.920;14.804;2022-12-20T09:13:10;4.60;99.90
18839;DHT22;9548;56.920;14.804;2022-12-20T09:15:37;4.60;99.90
18839;DHT22;9548;56.920;14.804;2022-12-20T09:18:05;4.60;99.90
18839;DHT22;9548;56.920;14.804;2022-12-20T09:20:32;4.60;99.90
18839;DHT22;9548;56.920;14.804;2022-12-20T09:22:59;4.60;99.90
18839;DHT22;9548;56.920;14.804;2022-12-20T09:25:26;4.60;99.90
18839;DHT22;9548;56.920;14.804;2022-12-20T09:27:54;4.60;99.90
18839;DHT22;9548;56.920;14.804;2022-12-20T09:30:23;4.60;99.90
18839;DHT22;9548;56.920;14.804;2022-12-20T09:32:50;4.60;99.90
18839;DHT22;9548;56.920;14.804;2022-12-20T09:35:17;4.60;99.90
18839;DHT22;9548;56.920;14.804;2022-12-20T09:37:44;4.60;99.90
18839;DHT22;9548;56.920;14.804;2022-12-20T09:40:16;4.60;99.90
18839;DHT22;9548;56.920;14.804;2022-12-20T09:42:44;4.50;99.90
18839;DHT22;9548;56.920;14.804;2022-12-20T09:45:18;4.60;99.90
18839;DHT22;9548;56.920;14.804;2022-12-20T09:47:48;4.60;99.90
18839;DHT22;9548;56.920;14.804;2022-12-20T09:50:18;4.60;99.90
18839;DHT22;9548;56.920;14.804;2022-12-20T09:52:58;4.60;99.90
18839;DHT22;9548;56.920;14.804;2022-12-20T09:55:33;4.70;99.90
18839;DHT22;9548;56.920;14.804;2022-12-20T09:58:19;4.70;99.90
18839;DHT22;9548;56.920;14.804;2022-12-20T10:00:50;4.70;99.90
18839;DHT22;9548;56.920;14.804;2022-12-20T10:03:21;4.70;99.90
18839;DHT22;9548;56.920;14.804;2022-12-20T10:05:51;4.80;99.90
18839;DHT22;9548;56.920;14.804;2022-12-20T10:08:27;4.80;99.90
18839;DHT22;9548;56.920;14.804;2022-12-20T10:11:07;4.90;99.90
18839;DHT22;9548;56.920;14.804;2022-12-20T10:13:45;4.90;99.90
18839;DHT22;9548;56.920;14.804;2022-12-20T10:16:26;5.00;99.90
18839;DHT22;9548;56.920;14.804;2022-12-20T10:19:08;5.00;99.90
18839;DHT22;9548;56.920;14.804;2022-12-20T10:21:46;5.00;99.90
18839;DHT22;9548;56.920;14.804;2022-12-20T10:24:17;5.10;99.90
18839;DHT22;9548;56.920;14.804;2022-12-20T10:26:49;5.10;99.90
18839;DHT22;9548;56.920;14.804;2022-12-20T10:29:17;5.30;99.90
18839;DHT22;9548;56.920;14.804;2022-12-20T10:31:44;5.30;99.90
18839;DHT22;9548;56.920;14.804;2022-12-20T10:34:12;5.30;99.90
18839;DHT22;9548;56.920;14.804;2022-12-20T10:36:40;5.40;99.90
18839;DHT22;9548;56.920;14.804;2022-12-20T10:39:08;5.30;99.90
18839;DHT22;9548;56.920;14.804;2022-12-20T10:41:47;5.40;99.90
18839;DHT22;9548;56.920;14.804;2022-12-20T10:44:20;5.40;99.90
18839;DHT22;9548;56.920;14.804;2022-12-20T10:46:52;5.40;99.90
18839;DHT22;9548;56.920;14.804;2022-12-20T10:49:27;5.30;99.90
18839;DHT22;9548;56.920;14.804;2022-12-20T10:51:58;5.40;99.90
18839;DHT22;9548;56.920;14.804;2022-12-20T10:54:31;5.30;99.90
18839;DHT22;9548;56.920;14.804;2022-12-20T10:57:00;5.40;99.90
18839;DHT22;9548;56.920;14.804;2022-12-20T10:59:32;5.40;99.90
18839;DHT22;9548;56.920;14.804;2022-12-20T11:02:01;5.30;99.90
18839;DHT22;9548;56.920;14.804;2022-12-20T11:04:31;5.30;99.90
18839;DHT22;9548;56.920;14.804;2022-12-20T11:07:00;5.30;99.90
18839;DHT22;9548;56.920;14.804;2022-12-20T11:09:29;5.20;99.90
18839;DHT22;9548;56.920;14.804;2022-12-20T11:11:58;5.20;99.90
18839;DHT22;9548;56.920;14.804;2022-12-20T11:14:26;5.20;99.90
18839;DHT22;9548;56.920;14.804;2022-12-20T11:16:55;5.30;99.90
18839;DHT22;9548;56.920;14.804;2022-12-20T11:22:28;5.10;99.90
18839;DHT22;9548;56.920;14.804;2022-12-20T11:25:06;5.10;99.90
18839;DHT22;9548;56.920;14.804;2022-12-20T11:27:43;5.10;99.90
18839;DHT22;9548;56.920;14.804;2022-12-20T11:30:17;5.10;99.90
18839;DHT22;9548;56.920;14.804;2022-12-20T11:32:58;5.10;99.90
18839;DHT22;9548;56.920;14.804;2022-12-20T11:35:36;5.10;99.90
18839;DHT22;9548;56.920;14.804;2022-12-20T11:38:11;5.10;99.90
18839;DHT22;9548;56.920;14.804;2022-12-20T11:40:45;5.10;99.90
18839;DHT22;9548;56.920;14.804;2022-12-20T11:43:35;5.10;99.90
18839;DHT22;9548;56.920;14.804;2022-12-20T11:46:18;5.10;99.90
18839;DHT22;9548;56.920;14.804;2022-12-20T11:49:00;5.10;99.90
18839;DHT22;9548;56.920;14.804;2022-12-20T11:51:39;5.10;99.90
18839;DHT22;9548;56.920;14.804;2022-12-20T11:54:11;5.10;99.90
18839;DHT22;9548;56.920;14.804;2022-12-20T11:56:43;5.10;99.90
18839;DHT22;9548;56.920;14.804;2022-12-20T11:59:15;5.20;99.90
18839;DHT22;9548;56.920;14.804;2022-12-20T12:01:49;5.10;99.90
18839;DHT22;9548;56.920;14.804;2022-12-20T12:04:20;5.10;99.90
18839;DHT22;9548;56.920;14.804;2022-12-20T12:06:56;5.10;99.90
18839;DHT22;9548;56.920;14.804;2022-12-20T12:09:28;5.00;99.90
18839;DHT22;9548;56.920;14.804;2022-12-20T12:11:59;5.10;99.90
18839;DHT22;9548;56.920;14.804;2022-12-20T12:14:32;5.00;99.90
18839;DHT22;9548;56.920;14.804;2022-12-20T12:17:07;5.00;99.90
18839;DHT22;9548;56.920;14.804;2022-12-20T12:19:36;5.00;99.90
18839;DHT22;9548;56.920;14.804;2022-12-20T12:22:12;5.00;99.90
18839;DHT22;9548;56.920;14.804;2022-12-20T12:24:44;5.00;99.90
18839;DHT22;9548;56.920;14.804;2022-12-20T12:27:22;5.00;99.90
18839;DHT22;9548;56.920;14.804;2022-12-20T12:29:50;5.00;99.90
18839;DHT22;9548;56.920;14.804;2022-12-20T12:32:24;4.90;99.90
18839;DHT22;9548;56.920;14.804;2022-12-20T12:38:03;4.90;99.90
18839;DHT22;9548;56.920;14.804;2022-12-20T12:40:54;5.00;99.90
18839;DHT22;9548;56.920;14.804;2022-12-20T12:43:48;4.90;99.90
18839;DHT22;9548;56.920;14.804;2022-12-20T12:46:18;4.90;99.90
18839;DHT22;9548;56.920;14.804;2022-12-20T12:48:51;4.90;99.90
18839;DHT22;9548;56.920;14.804;2022-12-20T12:51:26;4.90;99.90
18839;DHT22;9548;56.920;14.804;2022-12-20T12:54:03;4.90;99.90
18839;DHT22;9548;56.920;14.804;2022-12-20T12:56:39;4.90;99.90
18839;DHT22;9548;56.920;14.804;2022-12-20T12:59:18;4.90;99.90
18839;DHT22;9548;56.920;14.804;2022-12-20T13:01:47;4.90;99.90
18839;DHT22;9548;56.920;14.804;2022-12-20T13:04:26;4.90;99.90
18839;DHT22;9548;56.920;14.804;2022-12-20T13:09:46;4.90;99.90
18839;DHT22;9548;56.920;14.804;2022-12-20T13:12:54;4.80;99.90
18839;DHT22;9548;56.920;14.804;2022-12-20T13:15:50;4.80;99.90
18839;DHT22;9548;56.920;14.804;2022-12-20T13:18:25;4.80;99.90
18839;DHT22;9548;56.920;14.804;2022-12-20T13:21:16;4.90;99.90
18839;DHT22;9548;56.920;14.804;2022-12-20T13:23:44;4.90;99.90
18839;DHT22;9548;56.920;14.804;2022-12-20T13:26:48;5.00;99.90
18839;DHT22;9548;56.920;14.804;2022-12-20T13:29:23;5.00;99.90
18839;DHT22;9548;56.920;14.804;2022-12-20T13:31:50;5.00;99.90
18839;DHT22;9548;56.920;14.804;2022-12-20T13:34:41;5.00;99.90
18839;DHT22;9548;56.920;14.804;2022-12-20T13:37:26;5.10;99.90
18839;DHT22;9548;56.920;14.804;2022-12-20T13:39:54;5.10;99.90
18839;DHT22;9548;56.920;14.804;2022-12-20T13:42:33;5.10;99.90
18839;DHT22;9548;56.920;14.804;2022-12-20T13:45:08;5.10;99.90
18839;DHT22;9548;56.920;14.804;2022-12-20T13:47:41;5.10;99.90
18839;DHT22;9548;56.920;14.804;2022-12-20T13:50:38;5.10;99.90
18839;DHT22;9548;56.920;14.804;2022-12-20T13:53:06;5.20;99.90
18839;DHT22;9548;56.920;14.804;2022-12-20T13:55:41;5.20;99.90
18839;DHT22;9548;56.920;14.804;2022-12-20T13:58:14;5.20;99.90
18839;DHT22;9548;56.920;14.804;2022-12-20T14:00:43;5.20;99.90
18839;DHT22;9548;56.920;14.804;2022-12-20T14:03:21;5.20;99.90
18839;DHT22;9548;56.920;14.804;2022-12-20T14:05:51;5.10;99.90
18839;DHT22;9548;56.920;14.804;2022-12-20T14:08:20;5.10;99.90
18839;DHT22;9548;56.920;14.804;2022-12-20T14:10:51;5.10;99.90
18839;DHT22;9548;56.920;14.804;2022-12-20T14:13:22;5.10;99.90
18839;DHT22;9548;56.920;14.804;2022-12-20T14:15:50;5.10;99.90
18839;DHT22;9548;56.920;14.804;2022-12-20T14:18:19;5.10;99.90
18839;DHT22;9548;56.920;14.804;2022-12-20T14:20:48;5.10;99.90
18839;DHT22;9548;56.920;14.804;2022-12-20T14:23:18;5.10;99.90
18839;DHT22;9548;56.920;14.804;2022-12-20T14:25:47;5.00;99.90
18839;DHT22;9548;56.920;14.804;2022-12-20T14:31:07;5.10;99.90
18839;DHT22;9548;56.920;14.804;2022-12-20T14:33:47;5.10;99.90
18839;DHT22;9548;56.920;14.804;2022-12-20T14:36:18;5.10;99.90
18839;DHT22;9548;56.920;14.804;2022-12-20T14:38:46;5.00;99.90
18839;DHT22;9548;56.920;14.804;2022-12-20T14:41:33;5.10;99.90
18839;DHT22;9548;56.920;14.804;2022-12-20T14:44:10;5.00;99.90
18839;DHT22;9548;56.920;14.804;2022-12-20T14:46:46;5.00;99.90
18839;DHT22;9548;56.920;14.804;2022-12-20T14:49:19;5.10;99.90
18839;DHT22;9548;56.920;14.804;2022-12-20T14:51:48;5.10;99.90
18839;DHT22;9548;56.920;14.804;2022-12-20T14:54:17;5.10;99.90
18839;DHT22;9548;56.920;14.804;2022-12-20T14:56:46;5.10;99.90
18839;DHT22;9548;56.920;14.804;2022-12-20T14:59:19;5.10;99.90
18839;DHT22;9548;56.920;14.804;2022-12-20T15:01:50;5.10;99.90
18839;DHT22;9548;56.920;14.804;2022-12-20T15:04:30;5.10;99.90
18839;DHT22;9548;56.920;14.804;2022-12-20T15:06:57;5.10;99.90
18839;DHT22;9548;56.920;14.804;2022-12-20T15:09:24;5.10;99.90
18839;DHT22;9548;56.920;14.804;2022-12-20T15:11:52;5.10;99.90
18839;DHT22;9548;56.920;14.804;2022-12-20T15:14:29;5.10;99.90
18839;DHT22;9548;56.920;14.804;2022-12-20T15:16:59;5.10;99.90
18839;DHT22;9548;56.920;14.804;2022-12-20T15:19:26;5.10;99.90
18839;DHT22;9548;56.920;14.804;2022-12-20T15:21:53;5.20;99.90
18839;DHT22;9548;56.920;14.804;2022-12-20T15:24:24;5.20;99.90
18839;DHT22;9548;56.920;14.804;2022-12-20T15:26:51;5.10;99.90
18839;DHT22;9548;56.920;14.804;2022-12-20T15:29:20;5.20;99.90
18839;DHT22;9548;56.920;14.804;2022-12-20T15:31:48;5.20;99.90
18839;DHT22;9548;56.920;14.804;2022-12-20T15:34:22;5.20;99.90
18839;DHT22;9548;56.920;14.804;2022-12-20T15:36:52;5.20;99.90
18839;DHT22;9548;56.920;14.804;2022-12-20T15:39:19;5.20;99.90
18839;DHT22;9548;56.920;14.804;2022-12-20T15:41:48;5.20;99.90
18839;DHT22;9548;56.920;14.804;2022-12-20T15:44:18;5.20;99.90
18839;DHT22;9548;56.920;14.804;2022-12-20T15:46:46;5.30;99.90
18839;DHT22;9548;56.920;14.804;2022-12-20T15:49:14;5.30;99.90
18839;DHT22;9548;56.920;14.804;2022-12-20T15:51:44;5.20;99.90
18839;DHT22;9548;56.920;14.804;2022-12-20T15:54:19;5.20;99.90
18839;DHT22;9548;56.920;14.804;2022-12-20T15:56:48;5.20;99.90
18839;DHT22;9548;56.920;14.804;2022-12-20T15:59:15;5.20;99.90
18839;DHT22;9548;56.920;14.804;2022-12-20T16:01:42;5.20;99.90
18839;DHT22;9548;56.920;14.804;2022-12-20T16:04:13;5.30;99.90
18839;DHT22;9548;56.920;14.804;2022-12-20T16:06:40;5.20;99.90
18839;DHT22;9548;56.920;14.804;2022-12-20T16:09:09;5.30;99.90
18839;DHT22;9548;56.920;14.804;2022-12-20T16:11:39;5.30;99.90
18839;DHT22;9548;56.920;14.804;2022-12-20T16:14:13;5.30;99.90
18839;DHT22;9548;56.920;14.804;2022-12-20T16:16:40;5.30;99.90
18839;DHT22;9548;56.920;14.804;2022-12-20T16:19:09;5.30;99.90